This is the latest recevied weather packets stored in our database for station/object DM5KA-13. If no packets are shown the sender has not sent any weather packets the latest 10 day(s).
| Time | Temp. | Humidity | Pressure | Rain* | Wind** | Luminosity | Snow |
|---|---|---|---|---|---|---|---|
| 1777835122 | 21.11° C | 34% | 1012.5 hPa | 0 mm | 0 m/s | - | - |
| 1777834822 | 21.11° C | 34% | 1012.6 hPa | 0 mm | 0 m/s | - | - |
| 1777834222 | 22.22° C | 32% | 1012.6 hPa | 0 mm | 0 m/s | - | - |
| 1777833322 | 22.22° C | 31% | 1012.5 hPa | 0 mm | 0 m/s | - | - |
| 1777833022 | 22.78° C | 30% | 1012.5 hPa | 0 mm | 0 m/s | - | - |
| 1777831822 | 22.78° C | 30% | 1012.5 hPa | 0 mm | 0 m/s | - | - |
| 1777831522 | 22.78° C | 30% | 1012.5 hPa | 0 mm | 0.45 m/s, 0° | - | - |
| 1777831234 | 22.78° C | 29% | 1012.5 hPa | 0 mm | 0 m/s | - | - |
| 1777821034 | 27.22° C | 22% | 1013.1 hPa | 0 mm | 1.34 m/s, 0° | - | - |
| 1777820410 | 27.22° C | 23% | 1013.9 hPa | 0 mm | 0.45 m/s, 0° | - | - |
| 1777819210 | 27.22° C | 23% | 1013.4 hPa | 0 mm | 0.89 m/s, 0° | - | - |
| 1777818610 | 27.22° C | 22% | 1013.5 hPa | 0 mm | 0.89 m/s, 0° | - | - |
| 1777818010 | 27.78° C | 22% | 1013.6 hPa | 0 mm | 0.45 m/s, 0° | - | - |
| 1777817410 | 27.78° C | 22% | 1014.1 hPa | 0 mm | 1.34 m/s, 0° | - | - |
| 1777816509 | 27.78° C | 21% | 1013.8 hPa | 0 mm | 0.89 m/s, 0° | - | - |
| 1777816210 | 28.89° C | 20% | 1013.9 hPa | 0 mm | 0.45 m/s, 0° | - | - |
| 1777815321 | 27.78° C | 19% | 1013.7 hPa | 0 mm | 0.89 m/s, 0° | - | - |
| 1777814421 | 28.89° C | 20% | 1013.1 hPa | 0 mm | 0.89 m/s, 0° | - | - |
| 1777541108 | 12.78° C | 27% | 1034.4 hPa | 0 mm | 0.45 m/s, 0° | - | - |
| 1777540808 | 12.78° C | 27% | 1034.5 hPa | 0 mm | 0.45 m/s, 0° | - | - |
| 1777540508 | 12.78° C | 27% | 1034.6 hPa | 0 mm | 0.45 m/s, 0° | - | - |
| 1777539907 | 12.78° C | 28% | 1034.7 hPa | 0 mm | 0 m/s | - | - |
| 1777539008 | 12.78° C | 26% | 1034.7 hPa | 0 mm | 0 m/s | - | - |
| 1777538708 | 13.89° C | 26% | 1034.7 hPa | 0 mm | 0.45 m/s, 0° | - | - |
| 1777538407 | 13.89° C | 25% | 1034.7 hPa | 0 mm | 0 m/s | - | - |
* Rain latest hour (hover to see other rain measurements)
** Current wind speed in m/s (hover to see current wind gust speed)